sensor_id;sensor_type;location;lat;lon;timestamp;temperature;humidity
8338;DHT22;4206;48.634;9.516;2023-02-28T00:00:53;-2.60;99.90
8338;DHT22;4206;48.634;9.516;2023-02-28T00:03:20;-2.60;99.90
8338;DHT22;4206;48.634;9.516;2023-02-28T00:05:47;-2.60;99.90
8338;DHT22;4206;48.634;9.516;2023-02-28T00:08:15;-2.70;99.90
8338;DHT22;4206;48.634;9.516;2023-02-28T00:10:42;-2.60;99.90
8338;DHT22;4206;48.634;9.516;2023-02-28T00:13:10;-2.60;99.90
8338;DHT22;4206;48.634;9.516;2023-02-28T00:15:37;-2.60;99.90
8338;DHT22;4206;48.634;9.516;2023-02-28T00:18:05;-2.60;99.90
8338;DHT22;4206;48.634;9.516;2023-02-28T00:20:32;-2.50;99.90
8338;DHT22;4206;48.634;9.516;2023-02-28T00:22:59;-2.50;99.90
8338;DHT22;4206;48.634;9.516;2023-02-28T00:25:26;-2.50;99.90
8338;DHT22;4206;48.634;9.516;2023-02-28T00:27:53;-2.50;99.90
8338;DHT22;4206;48.634;9.516;2023-02-28T00:30:22;-2.50;99.90
8338;DHT22;4206;48.634;9.516;2023-02-28T00:32:50;-2.50;99.90
8338;DHT22;4206;48.634;9.516;2023-02-28T00:35:18;-2.50;99.90
8338;DHT22;4206;48.634;9.516;2023-02-28T00:37:45;-2.40;99.90
8338;DHT22;4206;48.634;9.516;2023-02-28T00:40:14;-2.40;99.90
8338;DHT22;4206;48.634;9.516;2023-02-28T00:42:41;-2.30;99.90
8338;DHT22;4206;48.634;9.516;2023-02-28T00:45:08;-2.50;99.90
8338;DHT22;4206;48.634;9.516;2023-02-28T00:47:35;-2.40;99.90
8338;DHT22;4206;48.634;9.516;2023-02-28T00:50:03;-2.40;99.90
8338;DHT22;4206;48.634;9.516;2023-02-28T00:52:30;-2.40;99.90
8338;DHT22;4206;48.634;9.516;2023-02-28T00:54:57;-2.50;99.90
8338;DHT22;4206;48.634;9.516;2023-02-28T00:57:24;-2.40;99.90
8338;DHT22;4206;48.634;9.516;2023-02-28T00:59:51;-2.40;99.90
8338;DHT22;4206;48.634;9.516;2023-02-28T01:02:21;-2.40;99.90
8338;DHT22;4206;48.634;9.516;2023-02-28T01:04:48;-2.30;99.90
8338;DHT22;4206;48.634;9.516;2023-02-28T01:07:16;-2.40;99.90
8338;DHT22;4206;48.634;9.516;2023-02-28T01:09:43;-2.30;99.90
8338;DHT22;4206;48.634;9.516;2023-02-28T01:12:10;-2.30;99.90
8338;DHT22;4206;48.634;9.516;2023-02-28T01:14:37;-2.20;99.90
8338;DHT22;4206;48.634;9.516;2023-02-28T01:17:04;-2.30;99.90
8338;DHT22;4206;48.634;9.516;2023-02-28T01:19:31;-2.30;99.90
8338;DHT22;4206;48.634;9.516;2023-02-28T01:22:01;-2.30;99.90
8338;DHT22;4206;48.634;9.516;2023-02-28T01:24:29;-2.30;99.90
8338;DHT22;4206;48.634;9.516;2023-02-28T01:26:56;-2.20;99.90
8338;DHT22;4206;48.634;9.516;2023-02-28T01:29:23;-2.20;99.90
8338;DHT22;4206;48.634;9.516;2023-02-28T01:31:50;-2.20;99.90
8338;DHT22;4206;48.634;9.516;2023-02-28T01:34:17;-2.20;99.90
8338;DHT22;4206;48.634;9.516;2023-02-28T01:36:45;-2.20;99.90
8338;DHT22;4206;48.634;9.516;2023-02-28T01:39:12;-2.20;99.90
8338;DHT22;4206;48.634;9.516;2023-02-28T01:41:41;-2.20;99.90
8338;DHT22;4206;48.634;9.516;2023-02-28T01:47:09;-2.20;99.90
8338;DHT22;4206;48.634;9.516;2023-02-28T01:49:37;-2.00;99.90
8338;DHT22;4206;48.634;9.516;2023-02-28T01:52:04;-2.10;99.90
8338;DHT22;4206;48.634;9.516;2023-02-28T01:54:34;-2.20;99.90
8338;DHT22;4206;48.634;9.516;2023-02-28T01:57:07;-2.20;99.90
8338;DHT22;4206;48.634;9.516;2023-02-28T01:59:42;-2.20;99.90
8338;DHT22;4206;48.634;9.516;2023-02-28T02:02:14;-2.10;99.90
8338;DHT22;4206;48.634;9.516;2023-02-28T02:04:50;-2.10;99.90
8338;DHT22;4206;48.634;9.516;2023-02-28T02:07:18;-2.10;99.90
8338;DHT22;4206;48.634;9.516;2023-02-28T02:09:44;-2.10;99.90
8338;DHT22;4206;48.634;9.516;2023-02-28T02:15:01;-2.10;99.90
8338;DHT22;4206;48.634;9.516;2023-02-28T02:17:36;-2.10;99.90
8338;DHT22;4206;48.634;9.516;2023-02-28T02:41:27;-2.10;99.90
8338;DHT22;4206;48.634;9.516;2023-02-28T02:44:02;-2.10;99.90
8338;DHT22;4206;48.634;9.516;2023-02-28T02:46:37;-2.20;99.90
8338;DHT22;4206;48.634;9.516;2023-02-28T02:49:09;-2.20;99.90
8338;DHT22;4206;48.634;9.516;2023-02-28T02:51:40;-2.20;99.90
8338;DHT22;4206;48.634;9.516;2023-02-28T02:54:15;-2.20;99.90
8338;DHT22;4206;48.634;9.516;2023-02-28T02:56:46;-2.20;99.90
8338;DHT22;4206;48.634;9.516;2023-02-28T02:59:17;-2.20;99.90
8338;DHT22;4206;48.634;9.516;2023-02-28T03:01:51;-2.20;99.90
8338;DHT22;4206;48.634;9.516;2023-02-28T03:04:21;-2.20;99.90
8338;DHT22;4206;48.634;9.516;2023-02-28T03:06:50;-2.20;99.90
8338;DHT22;4206;48.634;9.516;2023-02-28T03:09:22;-2.20;99.90
8338;DHT22;4206;48.634;9.516;2023-02-28T03:11:51;-2.20;99.90
8338;DHT22;4206;48.634;9.516;2023-02-28T03:14:25;-2.10;99.90
8338;DHT22;4206;48.634;9.516;2023-02-28T03:28:02;-2.00;99.90
8338;DHT22;4206;48.634;9.516;2023-02-28T03:33:08;-2.00;99.90
8338;DHT22;4206;48.634;9.516;2023-02-28T03:35:44;-2.00;99.90
8338;DHT22;4206;48.634;9.516;2023-02-28T03:38:19;-2.00;99.90
8338;DHT22;4206;48.634;9.516;2023-02-28T03:40:51;-1.90;99.90
8338;DHT22;4206;48.634;9.516;2023-02-28T03:43:26;-2.00;99.90
8338;DHT22;4206;48.634;9.516;2023-02-28T03:45:55;-1.90;99.90
8338;DHT22;4206;48.634;9.516;2023-02-28T03:48:30;-1.90;99.90
8338;DHT22;4206;48.634;9.516;2023-02-28T03:50:59;-1.90;99.90
8338;DHT22;4206;48.634;9.516;2023-02-28T03:53:32;-1.90;99.90
8338;DHT22;4206;48.634;9.516;2023-02-28T03:56:06;-1.80;99.90
8338;DHT22;4206;48.634;9.516;2023-02-28T05:01:53;-1.60;99.90
8338;DHT22;4206;48.634;9.516;2023-02-28T05:04:20;-1.60;99.90
8338;DHT22;4206;48.634;9.516;2023-02-28T05:06:47;-1.60;99.90
8338;DHT22;4206;48.634;9.516;2023-02-28T05:09:14;-1.60;99.90
8338;DHT22;4206;48.634;9.516;2023-02-28T05:11:41;-1.50;99.90
8338;DHT22;4206;48.634;9.516;2023-02-28T05:14:11;-1.50;99.90
8338;DHT22;4206;48.634;9.516;2023-02-28T05:16:39;-1.50;99.90
8338;DHT22;4206;48.634;9.516;2023-02-28T05:19:05;-1.60;99.90
8338;DHT22;4206;48.634;9.516;2023-02-28T05:24:05;-1.60;99.90
8338;DHT22;4206;48.634;9.516;2023-02-28T05:26:36;-1.60;99.90
8338;DHT22;4206;48.634;9.516;2023-02-28T05:29:03;-1.60;99.90
8338;DHT22;4206;48.634;9.516;2023-02-28T05:31:30;-1.50;99.90
8338;DHT22;4206;48.634;9.516;2023-02-28T05:33:58;-1.50;99.90
8338;DHT22;4206;48.634;9.516;2023-02-28T05:36:25;-1.50;99.90
8338;DHT22;4206;48.634;9.516;2023-02-28T05:38:52;-1.40;99.90
8338;DHT22;4206;48.634;9.516;2023-02-28T05:41:20;-1.40;99.90
8338;DHT22;4206;48.634;9.516;2023-02-28T05:43:47;-1.40;99.90
8338;DHT22;4206;48.634;9.516;2023-02-28T05:46:15;-1.30;99.90
8338;DHT22;4206;48.634;9.516;2023-02-28T05:48:45;-1.40;99.90
8338;DHT22;4206;48.634;9.516;2023-02-28T05:51:12;-1.40;99.90
8338;DHT22;4206;48.634;9.516;2023-02-28T05:53:39;-1.30;99.90
8338;DHT22;4206;48.634;9.516;2023-02-28T05:56:05;-1.20;99.90
8338;DHT22;4206;48.634;9.516;2023-02-28T05:58:32;-1.20;99.90
8338;DHT22;4206;48.634;9.516;2023-02-28T06:01:18;-1.20;99.90
8338;DHT22;4206;48.634;9.516;2023-02-28T06:03:46;-1.20;99.90
8338;DHT22;4206;48.634;9.516;2023-02-28T06:06:13;-1.20;99.90
8338;DHT22;4206;48.634;9.516;2023-02-28T06:08:40;-1.00;99.90
8338;DHT22;4206;48.634;9.516;2023-02-28T06:11:07;-0.90;99.90
8338;DHT22;4206;48.634;9.516;2023-02-28T06:13:34;-0.90;99.90
8338;DHT22;4206;48.634;9.516;2023-02-28T06:16:01;-0.80;99.90
8338;DHT22;4206;48.634;9.516;2023-02-28T06:18:27;-0.90;99.90
8338;DHT22;4206;48.634;9.516;2023-02-28T06:20:55;-0.90;99.90
8338;DHT22;4206;48.634;9.516;2023-02-28T06:23:22;-0.90;99.90
8338;DHT22;4206;48.634;9.516;2023-02-28T06:25:49;-0.80;99.90
8338;DHT22;4206;48.634;9.516;2023-02-28T06:28:16;-0.90;99.90
8338;DHT22;4206;48.634;9.516;2023-02-28T06:30:43;-0.90;99.90
8338;DHT22;4206;48.634;9.516;2023-02-28T06:33:12;-0.90;99.90
8338;DHT22;4206;48.634;9.516;2023-02-28T06:35:39;-0.90;99.90
8338;DHT22;4206;48.634;9.516;2023-02-28T06:38:06;-0.90;99.90
8338;DHT22;4206;48.634;9.516;2023-02-28T06:40:33;-0.80;99.90
8338;DHT22;4206;48.634;9.516;2023-02-28T06:43:02;-0.80;99.90
8338;DHT22;4206;48.634;9.516;2023-02-28T06:45:30;-0.90;99.90
8338;DHT22;4206;48.634;9.516;2023-02-28T06:47:57;-0.90;99.90
8338;DHT22;4206;48.634;9.516;2023-02-28T06:50:24;-0.80;99.90
8338;DHT22;4206;48.634;9.516;2023-02-28T06:52:51;-0.80;99.90
8338;DHT22;4206;48.634;9.516;2023-02-28T06:55:20;-0.90;99.90
8338;DHT22;4206;48.634;9.516;2023-02-28T06:57:47;-0.80;99.90
8338;DHT22;4206;48.634;9.516;2023-02-28T07:00:15;-0.80;99.90
8338;DHT22;4206;48.634;9.516;2023-02-28T07:02:42;-0.90;99.90
8338;DHT22;4206;48.634;9.516;2023-02-28T07:05:09;-0.80;99.90
8338;DHT22;4206;48.634;9.516;2023-02-28T07:07:36;-0.80;99.90
8338;DHT22;4206;48.634;9.516;2023-02-28T07:10:05;-0.80;99.90
8338;DHT22;4206;48.634;9.516;2023-02-28T07:12:32;-0.80;99.90
8338;DHT22;4206;48.634;9.516;2023-02-28T07:14:59;-0.80;99.90
8338;DHT22;4206;48.634;9.516;2023-02-28T07:17:26;-0.70;99.90
8338;DHT22;4206;48.634;9.516;2023-02-28T07:19:53;-0.70;99.90
8338;DHT22;4206;48.634;9.516;2023-02-28T07:22:20;-0.60;99.90
8338;DHT22;4206;48.634;9.516;2023-02-28T07:24:47;-0.50;99.90
8338;DHT22;4206;48.634;9.516;2023-02-28T07:27:14;-0.60;99.90
8338;DHT22;4206;48.634;9.516;2023-02-28T07:29:50;-0.60;99.90
8338;DHT22;4206;48.634;9.516;2023-02-28T07:32:17;-0.60;99.90
8338;DHT22;4206;48.634;9.516;2023-02-28T07:34:45;-0.50;99.90
8338;DHT22;4206;48.634;9.516;2023-02-28T07:37:12;-0.50;99.90
8338;DHT22;4206;48.634;9.516;2023-02-28T07:39:39;-0.60;99.90
8338;DHT22;4206;48.634;9.516;2023-02-28T07:42:09;-0.60;99.90
8338;DHT22;4206;48.634;9.516;2023-02-28T07:44:39;-0.50;99.90
8338;DHT22;4206;48.634;9.516;2023-02-28T07:47:08;-0.50;99.90
8338;DHT22;4206;48.634;9.516;2023-02-28T07:49:36;-0.40;99.90
8338;DHT22;4206;48.634;9.516;2023-02-28T07:52:04;-0.40;99.90
8338;DHT22;4206;48.634;9.516;2023-02-28T07:54:32;-0.30;99.90
8338;DHT22;4206;48.634;9.516;2023-02-28T07:56:59;-0.40;99.90
8338;DHT22;4206;48.634;9.516;2023-02-28T07:59:26;-0.40;99.90
8338;DHT22;4206;48.634;9.516;2023-02-28T08:01:57;-0.10;99.90
8338;DHT22;4206;48.634;9.516;2023-02-28T08:04:26;-0.30;99.90
8338;DHT22;4206;48.634;9.516;2023-02-28T08:06:53;-0.30;99.90
8338;DHT22;4206;48.634;9.516;2023-02-28T08:09:20;-0.20;99.90
8338;DHT22;4206;48.634;9.516;2023-02-28T08:11:47;-0.20;99.90
8338;DHT22;4206;48.634;9.516;2023-02-28T08:14:15;-0.10;99.90
8338;DHT22;4206;48.634;9.516;2023-02-28T08:16:42;-0.10;99.90
8338;DHT22;4206;48.634;9.516;2023-02-28T08:19:09;0.00;99.90
8338;DHT22;4206;48.634;9.516;2023-02-28T08:21:37;-0.10;99.90
8338;DHT22;4206;48.634;9.516;2023-02-28T08:24:04;-0.10;99.90
8338;DHT22;4206;48.634;9.516;2023-02-28T08:26:31;0.00;99.90
8338;DHT22;4206;48.634;9.516;2023-02-28T08:28:58;0.00;99.90
8338;DHT22;4206;48.634;9.516;2023-02-28T08:31:27;0.00;99.90
8338;DHT22;4206;48.634;9.516;2023-02-28T08:33:54;0.10;99.90
8338;DHT22;4206;48.634;9.516;2023-02-28T08:36:25;0.20;99.90
8338;DHT22;4206;48.634;9.516;2023-02-28T08:38:56;0.10;99.90
8338;DHT22;4206;48.634;9.516;2023-02-28T08:41:23;0.00;99.90
8338;DHT22;4206;48.634;9.516;2023-02-28T08:43:50;0.10;99.90
8338;DHT22;4206;48.634;9.516;2023-02-28T08:46:18;0.20;99.90
8338;DHT22;4206;48.634;9.516;2023-02-28T08:48:45;0.20;99.90
8338;DHT22;4206;48.634;9.516;2023-02-28T08:51:15;0.30;99.90
8338;DHT22;4206;48.634;9.516;2023-02-28T08:53:45;0.30;99.90
8338;DHT22;4206;48.634;9.516;2023-02-28T08:56:14;0.30;99.90
8338;DHT22;4206;48.634;9.516;2023-02-28T08:58:44;0.40;99.90
8338;DHT22;4206;48.634;9.516;2023-02-28T09:03:42;0.50;99.90
8338;DHT22;4206;48.634;9.516;2023-02-28T09:06:10;0.50;99.90
8338;DHT22;4206;48.634;9.516;2023-02-28T09:08:38;0.50;99.90
8338;DHT22;4206;48.634;9.516;2023-02-28T09:11:06;0.60;99.90
8338;DHT22;4206;48.634;9.516;2023-02-28T09:13:33;0.80;99.90
8338;DHT22;4206;48.634;9.516;2023-02-28T09:16:04;0.60;99.90
8338;DHT22;4206;48.634;9.516;2023-02-28T09:18:31;0.80;99.90
8338;DHT22;4206;48.634;9.516;2023-02-28T09:21:03;0.90;99.90
8338;DHT22;4206;48.634;9.516;2023-02-28T09:23:30;0.80;99.90
8338;DHT22;4206;48.634;9.516;2023-02-28T09:25:57;0.90;99.90
8338;DHT22;4206;48.634;9.516;2023-02-28T09:28:25;1.00;99.90
8338;DHT22;4206;48.634;9.516;2023-02-28T09:30:54;0.90;99.90
8338;DHT22;4206;48.634;9.516;2023-02-28T09:33:21;1.10;99.90
8338;DHT22;4206;48.634;9.516;2023-02-28T09:35:49;1.00;99.90
8338;DHT22;4206;48.634;9.516;2023-02-28T09:38:17;1.10;99.90
8338;DHT22;4206;48.634;9.516;2023-02-28T09:40:50;1.20;99.90
8338;DHT22;4206;48.634;9.516;2023-02-28T09:43:22;1.30;99.90
8338;DHT22;4206;48.634;9.516;2023-02-28T09:45:54;1.30;99.90
8338;DHT22;4206;48.634;9.516;2023-02-28T09:48:32;1.30;99.90
8338;DHT22;4206;48.634;9.516;2023-02-28T09:53:42;1.40;99.90
8338;DHT22;4206;48.634;9.516;2023-02-28T09:56:20;1.50;99.90
8338;DHT22;4206;48.634;9.516;2023-02-28T09:59:04;1.40;99.90
8338;DHT22;4206;48.634;9.516;2023-02-28T10:01:47;1.40;99.90
8338;DHT22;4206;48.634;9.516;2023-02-28T10:04:36;1.40;99.90
8338;DHT22;4206;48.634;9.516;2023-02-28T10:07:18;1.40;99.90
8338;DHT22;4206;48.634;9.516;2023-02-28T10:09:52;1.40;99.90
8338;DHT22;4206;48.634;9.516;2023-02-28T10:12:20;1.50;99.90
8338;DHT22;4206;48.634;9.516;2023-02-28T10:14:51;1.60;99.90
8338;DHT22;4206;48.634;9.516;2023-02-28T10:17:23;1.60;99.90
8338;DHT22;4206;48.634;9.516;2023-02-28T10:25:26;1.60;99.90
8338;DHT22;4206;48.634;9.516;2023-02-28T10:27:57;1.90;99.90
8338;DHT22;4206;48.634;9.516;2023-02-28T10:30:27;1.90;99.90
8338;DHT22;4206;48.634;9.516;2023-02-28T10:32:54;2.00;99.90
8338;DHT22;4206;48.634;9.516;2023-02-28T10:35:24;2.20;99.90
8338;DHT22;4206;48.634;9.516;2023-02-28T10:37:57;2.20;99.90
8338;DHT22;4206;48.634;9.516;2023-02-28T10:40:35;2.30;99.90
8338;DHT22;4206;48.634;9.516;2023-02-28T10:43:03;2.40;99.90
8338;DHT22;4206;48.634;9.516;2023-02-28T10:45:33;2.70;99.90
8338;DHT22;4206;48.634;9.516;2023-02-28T10:48:26;3.00;99.90
8338;DHT22;4206;48.634;9.516;2023-02-28T10:50:51;2.90;99.90
8338;DHT22;4206;48.634;9.516;2023-02-28T11:03:59;4.60;99.90
8338;DHT22;4206;48.634;9.516;2023-02-28T11:06:30;5.00;99.90
8338;DHT22;4206;48.634;9.516;2023-02-28T11:09:01;5.20;99.90
8338;DHT22;4206;48.634;9.516;2023-02-28T11:11:40;5.60;99.90
8338;DHT22;4206;48.634;9.516;2023-02-28T11:14:25;5.40;99.90
8338;DHT22;4206;48.634;9.516;2023-02-28T11:16:54;5.40;99.90
8338;DHT22;4206;48.634;9.516;2023-02-28T11:19:26;5.50;99.90
8338;DHT22;4206;48.634;9.516;2023-02-28T11:21:59;5.60;99.90
8338;DHT22;4206;48.634;9.516;2023-02-28T11:24:34;6.10;99.90
8338;DHT22;4206;48.634;9.516;2023-02-28T11:27:02;6.00;99.90
8338;DHT22;4206;48.634;9.516;2023-02-28T11:29:32;6.00;99.90
8338;DHT22;4206;48.634;9.516;2023-02-28T11:34:29;6.20;99.90
8338;DHT22;4206;48.634;9.516;2023-02-28T11:36:58;6.30;99.90
8338;DHT22;4206;48.634;9.516;2023-02-28T11:39:27;6.10;99.90
8338;DHT22;4206;48.634;9.516;2023-02-28T11:44:48;7.30;99.90
8338;DHT22;4206;48.634;9.516;2023-02-28T11:55:27;10.10;97.10
8338;DHT22;4206;48.634;9.516;2023-02-28T12:00:44;9.60;96.40
8338;DHT22;4206;48.634;9.516;2023-02-28T12:16:34;9.90;95.60
8338;DHT22;4206;48.634;9.516;2023-02-28T12:27:02;11.40;92.00
8338;DHT22;4206;48.634;9.516;2023-02-28T12:29:38;11.50;92.00
8338;DHT22;4206;48.634;9.516;2023-02-28T12:34:51;11.70;90.50
8338;DHT22;4206;48.634;9.516;2023-02-28T12:37:28;12.30;91.50
8338;DHT22;4206;48.634;9.516;2023-02-28T12:40:03;13.00;90.00
8338;DHT22;4206;48.634;9.516;2023-02-28T12:42:37;12.90;89.90
8338;DHT22;4206;48.634;9.516;2023-02-28T12:45:15;13.60;88.60
8338;DHT22;4206;48.634;9.516;2023-02-28T12:47:57;13.60;86.00
8338;DHT22;4206;48.634;9.516;2023-02-28T12:50:25;14.00;84.80
8338;DHT22;4206;48.634;9.516;2023-02-28T12:53:02;13.40;87.00
8338;DHT22;4206;48.634;9.516;2023-02-28T12:58:11;14.70;83.00
8338;DHT22;4206;48.634;9.516;2023-02-28T13:09:16;15.70;78.50
8338;DHT22;4206;48.634;9.516;2023-02-28T13:11:47;14.50;77.10
8338;DHT22;4206;48.634;9.516;2023-02-28T13:19:32;14.90;78.70
8338;DHT22;4206;48.634;9.516;2023-02-28T13:22:00;15.50;79.30
8338;DHT22;4206;48.634;9.516;2023-02-28T13:24:48;15.70;77.40
8338;DHT22;4206;48.634;9.516;2023-02-28T13:29:45;16.20;76.00
8338;DHT22;4206;48.634;9.516;2023-02-28T13:39:48;16.10;73.60
8338;DHT22;4206;48.634;9.516;2023-02-28T13:47:30;15.70;72.70
8338;DHT22;4206;48.634;9.516;2023-02-28T13:50:16;15.30;73.40
8338;DHT22;4206;48.634;9.516;2023-02-28T13:52:58;15.40;73.00
8338;DHT22;4206;48.634;9.516;2023-02-28T13:55:31;15.10;73.70
8338;DHT22;4206;48.634;9.516;2023-02-28T13:58:10;15.20;72.60
8338;DHT22;4206;48.634;9.516;2023-02-28T14:08:36;14.30;72.80
8338;DHT22;4206;48.634;9.516;2023-02-28T14:11:08;14.30;72.50
8338;DHT22;4206;48.634;9.516;2023-02-28T14:13:40;13.50;73.50
8338;DHT22;4206;48.634;9.516;2023-02-28T14:16:19;14.00;74.20
8338;DHT22;4206;48.634;9.516;2023-02-28T14:18:52;14.10;73.90
8338;DHT22;4206;48.634;9.516;2023-02-28T14:21:31;14.40;74.50
8338;DHT22;4206;48.634;9.516;2023-02-28T14:25:08;14.10;72.90
8338;DHT22;4206;48.634;9.516;2023-02-28T14:37:38;13.30;72.90
8338;DHT22;4206;48.634;9.516;2023-02-28T14:40:15;13.50;73.80
8338;DHT22;4206;48.634;9.516;2023-02-28T14:42:54;13.90;74.10
8338;DHT22;4206;48.634;9.516;2023-02-28T14:45:22;13.80;72.00
8338;DHT22;4206;48.634;9.516;2023-02-28T14:47:51;13.60;73.50
8338;DHT22;4206;48.634;9.516;2023-02-28T14:50:20;13.40;73.90
8338;DHT22;4206;48.634;9.516;2023-02-28T14:52:52;13.00;75.00
8338;DHT22;4206;48.634;9.516;2023-02-28T14:55:24;13.20;73.00
8338;DHT22;4206;48.634;9.516;2023-02-28T14:57:56;12.80;74.50
8338;DHT22;4206;48.634;9.516;2023-02-28T15:00:26;13.00;74.50
8338;DHT22;4206;48.634;9.516;2023-02-28T15:02:54;13.30;73.80
8338;DHT22;4206;48.634;9.516;2023-02-28T15:05:28;13.10;74.30
8338;DHT22;4206;48.634;9.516;2023-02-28T15:10:34;12.50;74.30
8338;DHT22;4206;48.634;9.516;2023-02-28T15:13:06;12.40;75.90
8338;DHT22;4206;48.634;9.516;2023-02-28T15:18:31;11.20;77.20
8338;DHT22;4206;48.634;9.516;2023-02-28T15:21:03;11.00;76.80
8338;DHT22;4206;48.634;9.516;2023-02-28T15:23:32;10.60;78.00
8338;DHT22;4206;48.634;9.516;2023-02-28T15:26:01;10.00;78.40
8338;DHT22;4206;48.634;9.516;2023-02-28T15:28:29;9.60;80.60
8338;DHT22;4206;48.634;9.516;2023-02-28T15:31:00;9.00;81.20
8338;DHT22;4206;48.634;9.516;2023-02-28T15:33:31;8.10;82.70
8338;DHT22;4206;48.634;9.516;2023-02-28T15:36:15;8.00;84.10
8338;DHT22;4206;48.634;9.516;2023-02-28T15:38:43;7.90;85.80
8338;DHT22;4206;48.634;9.516;2023-02-28T15:41:24;7.90;86.70
8338;DHT22;4206;48.634;9.516;2023-02-28T15:44:15;8.00;86.10
8338;DHT22;4206;48.634;9.516;2023-02-28T15:46:53;7.90;85.70
8338;DHT22;4206;48.634;9.516;2023-02-28T15:49:22;7.70;86.20
8338;DHT22;4206;48.634;9.516;2023-02-28T15:51:51;7.60;86.60
8338;DHT22;4206;48.634;9.516;2023-02-28T15:54:24;7.30;86.50
8338;DHT22;4206;48.634;9.516;2023-02-28T15:56:52;7.30;87.90
8338;DHT22;4206;48.634;9.516;2023-02-28T15:59:23;7.20;87.80
8338;DHT22;4206;48.634;9.516;2023-02-28T16:04:37;6.80;88.90
8338;DHT22;4206;48.634;9.516;2023-02-28T16:07:20;6.50;89.80
8338;DHT22;4206;48.634;9.516;2023-02-28T16:09:47;6.30;90.20
8338;DHT22;4206;48.634;9.516;2023-02-28T16:12:14;6.20;90.60
8338;DHT22;4206;48.634;9.516;2023-02-28T16:14:42;5.80;90.60
8338;DHT22;4206;48.634;9.516;2023-02-28T16:17:20;5.80;90.80
8338;DHT22;4206;48.634;9.516;2023-02-28T16:19:47;5.70;91.10
8338;DHT22;4206;48.634;9.516;2023-02-28T16:22:15;4.60;91.00
8338;DHT22;4206;48.634;9.516;2023-02-28T16:24:41;5.30;91.70
8338;DHT22;4206;48.634;9.516;2023-02-28T16:27:20;5.10;92.20
8338;DHT22;4206;48.634;9.516;2023-02-28T16:29:48;4.80;92.70
8338;DHT22;4206;48.634;9.516;2023-02-28T16:32:15;4.70;93.50
8338;DHT22;4206;48.634;9.516;2023-02-28T16:34:44;4.50;93.80
8338;DHT22;4206;48.634;9.516;2023-02-28T16:37:13;4.20;95.00
8338;DHT22;4206;48.634;9.516;2023-02-28T16:39:42;4.20;95.00
8338;DHT22;4206;48.634;9.516;2023-02-28T16:42:15;4.00;95.30
8338;DHT22;4206;48.634;9.516;2023-02-28T16:44:43;3.80;95.60
8338;DHT22;4206;48.634;9.516;2023-02-28T16:47:10;3.70;96.00
8338;DHT22;4206;48.634;9.516;2023-02-28T16:49:38;3.60;96.20
8338;DHT22;4206;48.634;9.516;2023-02-28T16:52:10;3.50;96.80
8338;DHT22;4206;48.634;9.516;2023-02-28T16:54:39;3.40;97.00
8338;DHT22;4206;48.634;9.516;2023-02-28T16:57:11;3.60;97.30
8338;DHT22;4206;48.634;9.516;2023-02-28T16:59:41;3.20;97.40
8338;DHT22;4206;48.634;9.516;2023-02-28T17:02:12;3.10;97.90
8338;DHT22;4206;48.634;9.516;2023-02-28T17:04:40;2.90;98.20
8338;DHT22;4206;48.634;9.516;2023-02-28T17:07:12;2.80;98.50
8338;DHT22;4206;48.634;9.516;2023-02-28T17:09:39;2.70;99.20
8338;DHT22;4206;48.634;9.516;2023-02-28T17:12:10;2.60;99.50
8338;DHT22;4206;48.634;9.516;2023-02-28T17:14:37;2.50;99.80
8338;DHT22;4206;48.634;9.516;2023-02-28T17:17:05;2.50;99.90
8338;DHT22;4206;48.634;9.516;2023-02-28T17:19:33;2.40;99.90
8338;DHT22;4206;48.634;9.516;2023-02-28T17:22:01;2.30;99.90
8338;DHT22;4206;48.634;9.516;2023-02-28T17:24:29;2.10;99.90
8338;DHT22;4206;48.634;9.516;2023-02-28T17:27:00;2.00;99.90
8338;DHT22;4206;48.634;9.516;2023-02-28T17:29:28;2.00;99.90
8338;DHT22;4206;48.634;9.516;2023-02-28T17:31:55;1.90;99.90
8338;DHT22;4206;48.634;9.516;2023-02-28T17:34:26;1.80;99.90
8338;DHT22;4206;48.634;9.516;2023-02-28T17:36:53;1.70;99.90
8338;DHT22;4206;48.634;9.516;2023-02-28T17:39:20;1.60;99.90
8338;DHT22;4206;48.634;9.516;2023-02-28T17:41:51;1.60;99.90
8338;DHT22;4206;48.634;9.516;2023-02-28T17:44:20;1.30;99.90
8338;DHT22;4206;48.634;9.516;2023-02-28T17:46:48;1.40;99.90
8338;DHT22;4206;48.634;9.516;2023-02-28T17:49:17;1.30;99.90
8338;DHT22;4206;48.634;9.516;2023-02-28T17:51:44;1.20;99.90
8338;DHT22;4206;48.634;9.516;2023-02-28T17:54:11;1.20;99.90
8338;DHT22;4206;48.634;9.516;2023-02-28T17:56:40;1.10;99.90
8338;DHT22;4206;48.634;9.516;2023-02-28T17:59:10;1.20;99.90
8338;DHT22;4206;48.634;9.516;2023-02-28T18:01:38;1.10;99.90
8338;DHT22;4206;48.634;9.516;2023-02-28T18:04:06;1.00;99.90
8338;DHT22;4206;48.634;9.516;2023-02-28T18:06:37;0.90;99.90
8338;DHT22;4206;48.634;9.516;2023-02-28T18:09:21;0.90;99.90
8338;DHT22;4206;48.634;9.516;2023-02-28T18:11:50;0.80;99.90
8338;DHT22;4206;48.634;9.516;2023-02-28T18:14:20;0.80;99.90
8338;DHT22;4206;48.634;9.516;2023-02-28T18:16:49;0.70;99.90
8338;DHT22;4206;48.634;9.516;2023-02-28T18:19:16;0.60;99.90
8338;DHT22;4206;48.634;9.516;2023-02-28T18:21:45;0.60;99.90
8338;DHT22;4206;48.634;9.516;2023-02-28T18:24:13;0.50;99.90
8338;DHT22;4206;48.634;9.516;2023-02-28T18:26:41;0.50;99.90
8338;DHT22;4206;48.634;9.516;2023-02-28T18:29:16;0.40;99.90
8338;DHT22;4206;48.634;9.516;2023-02-28T18:31:43;0.40;99.90
8338;DHT22;4206;48.634;9.516;2023-02-28T18:34:10;0.30;99.90
8338;DHT22;4206;48.634;9.516;2023-02-28T18:36:37;0.30;99.90
8338;DHT22;4206;48.634;9.516;2023-02-28T18:39:05;0.30;99.90
8338;DHT22;4206;48.634;9.516;2023-02-28T18:41:32;0.20;99.90
8338;DHT22;4206;48.634;9.516;2023-02-28T18:44:00;0.20;99.90
8338;DHT22;4206;48.634;9.516;2023-02-28T18:46:39;0.10;99.90
8338;DHT22;4206;48.634;9.516;2023-02-28T18:49:06;0.10;99.90
8338;DHT22;4206;48.634;9.516;2023-02-28T18:51:33;0.10;99.90
8338;DHT22;4206;48.634;9.516;2023-02-28T18:54:00;0.00;99.90
8338;DHT22;4206;48.634;9.516;2023-02-28T18:56:27;0.00;99.90
8338;DHT22;4206;48.634;9.516;2023-02-28T18:58:57;0.00;99.90
8338;DHT22;4206;48.634;9.516;2023-02-28T19:01:28;-0.10;99.90
8338;DHT22;4206;48.634;9.516;2023-02-28T19:03:59;-0.10;99.90
8338;DHT22;4206;48.634;9.516;2023-02-28T19:06:29;-0.40;99.90
8338;DHT22;4206;48.634;9.516;2023-02-28T19:08:59;-0.20;99.90
8338;DHT22;4206;48.634;9.516;2023-02-28T19:11:27;-0.20;99.90
8338;DHT22;4206;48.634;9.516;2023-02-28T19:13:54;-0.30;99.90
8338;DHT22;4206;48.634;9.516;2023-02-28T19:16:21;-0.30;99.90
8338;DHT22;4206;48.634;9.516;2023-02-28T19:18:49;-0.40;99.90
8338;DHT22;4206;48.634;9.516;2023-02-28T19:21:18;-0.40;99.90
8338;DHT22;4206;48.634;9.516;2023-02-28T19:23:45;-0.50;99.90
8338;DHT22;4206;48.634;9.516;2023-02-28T19:26:16;-0.50;99.90
8338;DHT22;4206;48.634;9.516;2023-02-28T19:28:44;-0.60;99.90
8338;DHT22;4206;48.634;9.516;2023-02-28T19:31:14;-0.70;99.90
8338;DHT22;4206;48.634;9.516;2023-02-28T19:33:42;-0.70;99.90
8338;DHT22;4206;48.634;9.516;2023-02-28T19:36:10;-0.80;99.90
8338;DHT22;4206;48.634;9.516;2023-02-28T19:38:38;-0.80;99.90
8338;DHT22;4206;48.634;9.516;2023-02-28T19:41:08;-0.90;99.90
8338;DHT22;4206;48.634;9.516;2023-02-28T19:43:35;-0.90;99.90
8338;DHT22;4206;48.634;9.516;2023-02-28T19:46:03;-0.90;99.90
8338;DHT22;4206;48.634;9.516;2023-02-28T19:48:31;-1.00;99.90
8338;DHT22;4206;48.634;9.516;2023-02-28T19:50:59;-1.00;99.90
8338;DHT22;4206;48.634;9.516;2023-02-28T19:53:29;-1.00;99.90
8338;DHT22;4206;48.634;9.516;2023-02-28T19:55:56;-1.00;99.90
8338;DHT22;4206;48.634;9.516;2023-02-28T19:58:23;-1.10;99.90
8338;DHT22;4206;48.634;9.516;2023-02-28T20:00:50;-1.10;99.90
8338;DHT22;4206;48.634;9.516;2023-02-28T20:03:17;-1.20;99.90
8338;DHT22;4206;48.634;9.516;2023-02-28T20:05:45;-1.10;99.90
8338;DHT22;4206;48.634;9.516;2023-02-28T20:08:12;-1.00;99.90
8338;DHT22;4206;48.634;9.516;2023-02-28T20:10:39;-1.00;99.90